createdAt,value
2023-04-20T00:00:22.769Z,56.37
2023-04-20T00:01:22.757Z,56.84
2023-04-20T00:02:22.875Z,56.71
2023-04-20T00:03:23.408Z,56.57
2023-04-20T00:04:22.706Z,57.00
2023-04-20T00:05:22.778Z,57.40
2023-04-20T00:06:22.691Z,57.52
2023-04-20T00:07:22.764Z,57.43
2023-04-20T00:08:22.718Z,57.27
2023-04-20T00:09:22.696Z,57.19
2023-04-20T00:10:22.677Z,57.10
2023-04-20T00:11:22.680Z,56.95
2023-04-20T00:12:22.745Z,57.03
2023-04-20T00:13:22.772Z,56.87
2023-04-20T00:14:22.778Z,57.05
2023-04-20T00:15:22.796Z,57.13
2023-04-20T00:16:22.937Z,57.55
2023-04-20T00:17:22.937Z,57.80
2023-04-20T00:18:22.973Z,58.12
2023-04-20T00:19:22.870Z,58.45
2023-04-20T00:20:22.937Z,57.98
2023-04-20T00:21:22.906Z,57.75
2023-04-20T00:22:22.995Z,57.73
2023-04-20T00:23:23.005Z,57.72
2023-04-20T00:24:23.026Z,57.90
2023-04-20T00:25:23.038Z,57.40
2023-04-20T00:26:23.055Z,57.39
2023-04-20T00:27:23.140Z,57.37
2023-04-20T00:28:23.208Z,57.49
2023-04-20T00:29:23.258Z,57.88
2023-04-20T00:30:23.342Z,58.47
2023-04-20T00:31:23.434Z,58.72
2023-04-20T00:32:23.439Z,58.82
2023-04-20T00:33:23.437Z,58.99
2023-04-20T00:34:23.403Z,59.29
2023-04-20T00:35:23.428Z,59.04
2023-04-20T00:36:23.448Z,58.54
2023-04-20T00:37:23.406Z,58.28
2023-04-20T00:38:25.318Z,57.97
2023-04-20T00:39:23.504Z,58.17
2023-04-20T00:40:23.581Z,58.65
2023-04-20T00:41:23.586Z,58.50
2023-04-20T00:42:23.659Z,58.47
2023-04-20T00:43:23.676Z,58.77
2023-04-20T00:44:23.698Z,58.65
2023-04-20T00:45:23.720Z,58.83
2023-04-20T00:46:23.825Z,59.32
2023-04-20T00:47:23.774Z,59.04
2023-04-20T00:48:23.821Z,58.93
2023-04-20T00:49:23.785Z,58.90
2023-04-20T00:50:23.860Z,59.23
2023-04-20T00:51:23.939Z,59.58
2023-04-20T00:52:23.946Z,59.93
2023-04-20T00:53:24.014Z,59.62
2023-04-20T00:54:23.982Z,60.13
2023-04-20T00:55:23.992Z,60.55
2023-04-20T00:56:24.015Z,60.74
2023-04-20T00:57:24.163Z,60.78
2023-04-20T00:58:24.049Z,60.43
2023-04-20T00:59:24.021Z,60.74
2023-04-20T01:00:24.059Z,60.88
2023-04-20T01:01:24.238Z,60.14
2023-04-20T01:02:24.337Z,60.24
2023-04-20T01:03:24.474Z,60.41
2023-04-20T01:04:24.356Z,60.70
2023-04-20T01:05:24.327Z,60.88
2023-04-20T01:06:24.365Z,60.94
2023-04-20T01:07:24.428Z,61.25
2023-04-20T01:08:24.403Z,61.37
2023-04-20T01:09:24.409Z,61.13
2023-04-20T01:10:24.470Z,60.93
2023-04-20T01:11:24.569Z,60.47
2023-04-20T01:12:24.567Z,60.38
2023-04-20T01:13:24.633Z,60.25
2023-04-20T01:14:24.655Z,59.85
2023-04-20T01:15:24.639Z,59.57
2023-04-20T01:16:24.658Z,60.20
2023-04-20T01:17:24.754Z,60.49
2023-04-20T01:18:24.834Z,60.80
2023-04-20T01:19:24.703Z,61.08
2023-04-20T01:20:24.774Z,60.93
2023-04-20T01:21:24.800Z,60.87
2023-04-20T01:22:24.925Z,60.36
2023-04-20T01:23:25.343Z,60.36
2023-04-20T01:24:24.946Z,60.39
2023-04-20T01:25:25.072Z,60.69
2023-04-20T01:26:25.104Z,60.72
2023-04-20T01:27:25.108Z,60.51
2023-04-20T01:28:25.327Z,60.10
2023-04-20T01:29:25.208Z,60.20
2023-04-20T01:30:25.319Z,60.57
2023-04-20T01:31:25.373Z,61.27
2023-04-20T01:32:25.347Z,61.32
2023-04-20T01:33:25.387Z,61.54
2023-04-20T01:34:25.390Z,60.98
2023-04-20T01:35:25.412Z,60.45
2023-04-20T01:36:25.480Z,60.05
2023-04-20T01:37:25.451Z,59.88
2023-04-20T01:38:25.511Z,59.84
2023-04-20T01:39:25.524Z,60.23
2023-04-20T01:40:25.572Z,60.38
2023-04-20T01:41:25.637Z,60.44
2023-04-20T01:42:25.695Z,60.28
2023-04-20T01:43:25.710Z,60.40
2023-04-20T01:44:25.749Z,60.24
2023-04-20T01:45:25.747Z,61.00
2023-04-20T01:46:25.805Z,60.93
2023-04-20T01:47:27.401Z,60.85
2023-04-20T01:48:25.858Z,60.54
2023-04-20T01:49:25.873Z,60.48
2023-04-20T01:50:25.899Z,60.67
2023-04-20T01:51:25.908Z,60.69
2023-04-20T01:52:25.898Z,61.29
2023-04-20T01:53:25.962Z,61.86
2023-04-20T01:54:25.924Z,62.64
2023-04-20T01:55:25.994Z,62.21
2023-04-20T01:56:26.004Z,61.79
2023-04-20T01:57:26.076Z,61.31
2023-04-20T01:58:26.378Z,61.33
2023-04-20T01:59:26.086Z,61.18
2023-04-20T02:00:26.146Z,61.18
2023-04-20T02:01:26.178Z,61.03
2023-04-20T02:02:26.331Z,61.13
2023-04-20T02:03:26.326Z,61.28
2023-04-20T02:04:26.263Z,61.56
2023-04-20T02:05:26.338Z,61.55
2023-04-20T02:06:26.357Z,61.58
2023-04-20T02:07:26.378Z,61.19
2023-04-20T02:08:26.436Z,60.89
2023-04-20T02:09:26.457Z,60.90
2023-04-20T02:10:26.468Z,61.01
2023-04-20T02:11:26.504Z,60.75
2023-04-20T02:12:26.498Z,61.07
2023-04-20T02:13:26.579Z,60.82
2023-04-20T02:14:26.611Z,60.50
2023-04-20T02:15:26.587Z,60.27
2023-04-20T02:16:26.680Z,60.53
2023-04-20T02:17:26.741Z,60.57
2023-04-20T02:18:26.815Z,60.46
2023-04-20T02:19:26.783Z,61.08
2023-04-20T02:20:26.937Z,61.31
2023-04-20T02:21:26.859Z,61.08
2023-04-20T02:22:26.904Z,61.14
2023-04-20T02:23:26.957Z,61.27
2023-04-20T02:24:27.031Z,61.40
2023-04-20T02:25:27.043Z,62.08
2023-04-20T02:26:27.068Z,61.84
2023-04-20T02:27:27.138Z,61.57
2023-04-20T02:28:27.177Z,61.68
2023-04-20T02:29:27.220Z,61.65
2023-04-20T02:30:27.288Z,61.28
2023-04-20T02:31:27.397Z,61.61
2023-04-20T02:32:27.404Z,61.85
2023-04-20T02:33:27.453Z,61.76
2023-04-20T02:34:27.467Z,61.26
2023-04-20T02:35:27.532Z,61.12
2023-04-20T02:36:27.598Z,61.07
2023-04-20T02:37:27.635Z,61.44
2023-04-20T02:38:27.683Z,61.31
2023-04-20T02:39:27.709Z,60.96
2023-04-20T02:40:27.779Z,61.22
2023-04-20T02:41:27.850Z,61.50
2023-04-20T02:42:27.825Z,61.46
2023-04-20T02:43:27.901Z,61.25
2023-04-20T02:44:27.854Z,61.07
2023-04-20T02:45:27.878Z,61.36
2023-04-20T02:46:27.919Z,61.18
2023-04-20T02:47:27.988Z,60.78
2023-04-20T02:48:28.030Z,60.09
2023-04-20T02:49:28.061Z,60.02
2023-04-20T02:50:28.132Z,59.70
2023-04-20T02:51:28.148Z,59.60
2023-04-20T02:52:28.209Z,59.35
2023-04-20T02:53:28.263Z,59.02
2023-04-20T02:54:28.307Z,59.13
2023-04-20T02:55:28.325Z,59.24
2023-04-20T02:56:28.349Z,59.41
2023-04-20T02:57:28.396Z,59.84
2023-04-20T02:58:28.487Z,59.91
2023-04-20T02:59:28.506Z,59.45
2023-04-20T03:00:28.581Z,59.55
2023-04-20T03:01:28.575Z,59.93
2023-04-20T03:02:28.703Z,59.47
2023-04-20T03:03:28.819Z,59.61
2023-04-20T03:04:28.795Z,59.23
2023-04-20T03:05:28.753Z,59.17
2023-04-20T03:06:28.843Z,59.11
2023-04-20T03:07:28.855Z,59.27
2023-04-20T03:08:28.936Z,59.20
2023-04-20T03:09:28.962Z,59.27
2023-04-20T03:10:28.980Z,59.15
2023-04-20T03:11:28.982Z,59.35
2023-04-20T03:12:29.009Z,59.21
2023-04-20T03:13:29.072Z,58.72
2023-04-20T03:14:29.068Z,58.73
2023-04-20T03:15:29.117Z,58.80
2023-04-20T03:16:29.177Z,58.67
2023-04-20T03:17:29.226Z,58.76
2023-04-20T03:18:29.288Z,59.41
2023-04-20T03:19:29.279Z,59.77
2023-04-20T03:20:29.314Z,59.74
2023-04-20T03:21:29.333Z,59.50
2023-04-20T03:22:29.351Z,59.89
2023-04-20T03:23:29.423Z,60.27
2023-04-20T03:24:29.436Z,60.42
2023-04-20T03:25:29.456Z,60.55
2023-04-20T03:26:29.493Z,60.61
2023-04-20T03:27:29.561Z,60.56
2023-04-20T03:28:29.592Z,60.50
2023-04-20T03:29:29.577Z,59.93
2023-04-20T03:30:29.592Z,59.82
2023-04-20T03:31:29.638Z,59.57
2023-04-20T03:32:32.069Z,59.58
2023-04-20T03:33:29.601Z,59.59
2023-04-20T03:34:29.604Z,59.55
2023-04-20T03:35:29.607Z,59.25
2023-04-20T03:36:29.606Z,59.32
2023-04-20T03:37:29.633Z,59.23
2023-04-20T03:38:29.595Z,59.04
2023-04-20T03:39:29.566Z,59.27
2023-04-20T03:40:29.581Z,59.65
2023-04-20T03:41:29.542Z,59.56
2023-04-20T03:42:29.571Z,59.74
2023-04-20T03:43:29.551Z,59.98
2023-04-20T03:44:29.538Z,60.07
2023-04-20T03:45:29.603Z,60.01
2023-04-20T03:46:29.696Z,59.86
2023-04-20T03:47:29.513Z,59.60
2023-04-20T03:48:29.579Z,60.19
2023-04-20T03:49:29.485Z,59.82
2023-04-20T03:50:29.520Z,59.72
2023-04-20T03:51:29.477Z,60.41
2023-04-20T03:52:29.529Z,60.48
2023-04-20T03:53:29.577Z,60.61
2023-04-20T03:54:29.498Z,60.49
2023-04-20T03:55:29.465Z,60.79
2023-04-20T03:56:29.456Z,61.22
2023-04-20T03:57:29.500Z,61.28
2023-04-20T03:58:29.910Z,60.98
2023-04-20T03:59:29.438Z,60.92
2023-04-20T04:00:29.512Z,61.33
2023-04-20T04:01:29.452Z,61.08
2023-04-20T04:02:29.580Z,61.17
2023-04-20T04:03:29.492Z,60.72
2023-04-20T04:04:29.678Z,61.01
2023-04-20T04:05:29.503Z,61.09
2023-04-20T04:06:29.403Z,61.11
2023-04-20T04:07:29.390Z,61.17
2023-04-20T04:08:29.380Z,61.57
2023-04-20T04:09:29.418Z,61.38
2023-04-20T04:10:29.479Z,61.51
2023-04-20T04:11:29.357Z,61.43
2023-04-20T04:12:29.359Z,61.44
2023-04-20T04:13:29.383Z,61.25
2023-04-20T04:14:29.358Z,61.36
2023-04-20T04:15:29.419Z,61.37
2023-04-20T04:16:29.352Z,61.34
2023-04-20T04:17:29.329Z,61.35
2023-04-20T04:18:29.431Z,62.09
2023-04-20T04:19:29.297Z,62.66
2023-04-20T04:20:29.296Z,62.91
2023-04-20T04:21:29.268Z,62.80
2023-04-20T04:22:30.557Z,62.73
2023-04-20T04:23:29.371Z,62.88
2023-04-20T04:24:29.317Z,63.07
2023-04-20T04:25:29.276Z,62.87
2023-04-20T04:26:29.289Z,62.68
2023-04-20T04:27:30.878Z,62.50
2023-04-20T04:28:29.270Z,63.06
2023-04-20T04:29:29.252Z,63.40
2023-04-20T04:30:29.259Z,63.58
2023-04-20T04:31:29.239Z,63.54
2023-04-20T04:32:29.270Z,63.32
2023-04-20T04:33:29.225Z,63.08
2023-04-20T04:34:29.315Z,62.59
2023-04-20T04:35:29.214Z,62.35
2023-04-20T04:36:29.193Z,62.01
2023-04-20T04:37:29.186Z,61.85
2023-04-20T04:38:29.271Z,61.90
2023-04-20T04:39:29.272Z,61.64
2023-04-20T04:40:29.342Z,61.58
2023-04-20T04:41:29.374Z,61.18
2023-04-20T04:42:29.455Z,60.92
2023-04-20T04:43:29.947Z,61.24
2023-04-20T04:44:29.514Z,60.73
2023-04-20T04:45:29.584Z,61.17
2023-04-20T04:46:29.672Z,61.12
2023-04-20T04:47:29.777Z,60.69
2023-04-20T04:48:29.896Z,60.53
2023-04-20T04:49:29.668Z,60.44
2023-04-20T04:50:29.712Z,60.50
2023-04-20T04:51:29.781Z,60.11
2023-04-20T04:52:29.766Z,60.18
2023-04-20T04:53:29.915Z,60.02
2023-04-20T04:54:29.891Z,59.89
2023-04-20T04:55:29.955Z,59.94
2023-04-20T04:56:29.907Z,60.25
2023-04-20T04:57:29.942Z,59.81
2023-04-20T04:58:30.888Z,59.95
2023-04-20T04:59:30.041Z,60.23
2023-04-20T05:00:30.035Z,60.36
2023-04-20T05:01:30.084Z,60.17
2023-04-20T05:02:30.417Z,59.64
2023-04-20T05:03:30.205Z,59.33
2023-04-20T05:04:30.273Z,59.02
2023-04-20T05:05:30.173Z,59.12
2023-04-20T05:06:30.207Z,59.13
2023-04-20T05:07:30.283Z,59.14
2023-04-20T05:08:30.250Z,59.08
2023-04-20T05:09:30.276Z,59.20
2023-04-20T05:10:30.262Z,59.03
2023-04-20T05:11:30.366Z,58.82
2023-04-20T05:12:30.341Z,59.06
2023-04-20T05:13:30.362Z,59.20
2023-04-20T05:14:30.382Z,59.49
2023-04-20T05:15:30.437Z,59.67
2023-04-20T05:16:30.549Z,59.57
2023-04-20T05:17:30.603Z,60.26
2023-04-20T05:18:30.608Z,60.36
2023-04-20T05:19:30.577Z,59.97
2023-04-20T05:20:30.637Z,59.85
2023-04-20T05:21:31.391Z,59.84
2023-04-20T05:22:30.625Z,59.91
2023-04-20T05:23:30.612Z,59.74
2023-04-20T05:24:30.913Z,59.84
2023-04-20T05:25:30.618Z,59.87
2023-04-20T05:26:30.799Z,59.68
2023-04-20T05:27:30.723Z,59.28
2023-04-20T05:28:30.987Z,59.35
2023-04-20T05:29:30.797Z,59.39
2023-04-20T05:30:31.383Z,59.79
2023-04-20T05:31:30.884Z,59.91
2023-04-20T05:32:32.012Z,59.77
2023-04-20T05:33:31.896Z,59.35
2023-04-20T05:34:31.027Z,59.64
2023-04-20T05:35:31.317Z,59.41
2023-04-20T05:36:31.172Z,59.01
2023-04-20T05:37:31.146Z,58.79
2023-04-20T05:38:31.082Z,58.74
2023-04-20T05:39:31.026Z,58.60
2023-04-20T05:40:31.087Z,58.38
2023-04-20T05:41:31.045Z,58.38
2023-04-20T05:42:31.073Z,58.62
2023-04-20T05:43:31.165Z,58.97
2023-04-20T05:44:31.084Z,59.13
2023-04-20T05:45:31.112Z,59.12
2023-04-20T05:46:31.080Z,59.23
2023-04-20T05:47:31.124Z,59.47
2023-04-20T05:48:31.641Z,59.26
2023-04-20T05:49:31.190Z,58.71
2023-04-20T05:50:31.176Z,58.52
2023-04-20T05:51:31.314Z,58.66
2023-04-20T05:52:31.354Z,58.94
2023-04-20T05:53:31.347Z,58.93
2023-04-20T05:54:31.906Z,58.83
2023-04-20T05:55:31.301Z,58.56
2023-04-20T05:56:31.348Z,58.55
2023-04-20T05:57:31.316Z,58.83
2023-04-20T05:58:31.373Z,58.65
2023-04-20T05:59:31.570Z,58.54
2023-04-20T06:00:31.360Z,58.73
2023-04-20T06:01:31.450Z,58.82
2023-04-20T06:02:31.557Z,58.68
2023-04-20T06:03:31.895Z,59.07
2023-04-20T06:04:32.052Z,58.78
2023-04-20T06:05:32.514Z,58.11
2023-04-20T06:06:31.766Z,58.03
2023-04-20T06:07:31.711Z,57.70
2023-04-20T06:08:31.925Z,57.78
2023-04-20T06:09:31.684Z,57.67
2023-04-20T06:10:31.718Z,57.49
2023-04-20T06:11:31.739Z,57.48
2023-04-20T06:12:32.497Z,57.52
2023-04-20T06:13:31.832Z,57.49
2023-04-20T06:14:31.811Z,57.38
2023-04-20T06:15:32.048Z,57.07
2023-04-20T06:16:31.988Z,57.21
2023-04-20T06:17:31.930Z,57.55
2023-04-20T06:18:32.396Z,57.97
2023-04-20T06:19:31.998Z,57.87
2023-04-20T06:20:32.007Z,57.57
2023-04-20T06:21:32.127Z,57.43
2023-04-20T06:22:32.063Z,57.34
2023-04-20T06:23:32.119Z,57.75
2023-04-20T06:24:32.082Z,57.61
2023-04-20T06:25:32.173Z,57.40
2023-04-20T06:26:32.232Z,57.49
2023-04-20T06:27:32.196Z,57.34
2023-04-20T06:28:32.226Z,56.94
2023-04-20T06:29:32.196Z,56.82
2023-04-20T06:30:32.254Z,56.79
2023-04-20T06:31:32.276Z,56.95
2023-04-20T06:32:32.530Z,56.73
2023-04-20T06:33:32.255Z,56.40
2023-04-20T06:34:32.238Z,56.38
2023-04-20T06:35:32.264Z,56.62
2023-04-20T06:36:32.257Z,56.13
2023-04-20T06:37:32.383Z,56.07
2023-04-20T06:38:32.456Z,56.13
2023-04-20T06:39:32.381Z,55.78
2023-04-20T06:40:32.392Z,55.60
2023-04-20T06:41:33.537Z,55.26
2023-04-20T06:42:32.453Z,55.17
2023-04-20T06:43:33.419Z,55.01
2023-04-20T06:44:32.898Z,54.94
2023-04-20T06:45:34.072Z,54.64
2023-04-20T06:46:32.667Z,54.40
2023-04-20T06:47:32.911Z,54.83
2023-04-20T06:48:33.224Z,55.01
2023-04-20T06:49:32.910Z,54.67
2023-04-20T06:50:32.869Z,54.74
2023-04-20T06:51:32.957Z,54.95
2023-04-20T06:52:33.006Z,55.04
2023-04-20T06:53:33.422Z,54.89
2023-04-20T06:54:33.896Z,55.42
2023-04-20T06:55:33.177Z,54.87
2023-04-20T06:56:35.380Z,54.34
2023-04-20T06:57:33.186Z,54.60
2023-04-20T06:58:33.954Z,54.60
2023-04-20T06:59:33.260Z,54.64
2023-04-20T07:00:33.257Z,54.60
2023-04-20T07:01:33.886Z,54.57
2023-04-20T07:02:33.434Z,54.39
2023-04-20T07:03:33.638Z,54.14
2023-04-20T07:04:33.569Z,54.00
2023-04-20T07:05:33.508Z,53.71
2023-04-20T07:06:33.588Z,53.79
2023-04-20T07:07:33.658Z,53.99
2023-04-20T07:08:33.655Z,54.55
2023-04-20T07:09:34.493Z,54.40
2023-04-20T07:10:33.700Z,53.78
2023-04-20T07:11:33.714Z,53.31
2023-04-20T07:12:33.828Z,53.33
2023-04-20T07:13:34.118Z,53.73
2023-04-20T07:14:33.859Z,53.42
2023-04-20T07:15:33.931Z,53.02
2023-04-20T07:16:34.000Z,53.20
2023-04-20T07:17:34.048Z,53.54
2023-04-20T07:18:35.269Z,52.99
2023-04-20T07:19:34.114Z,52.61
2023-04-20T07:20:34.993Z,52.52
2023-04-20T07:21:34.209Z,52.44
2023-04-20T07:22:34.173Z,52.63
2023-04-20T07:23:34.199Z,52.41
2023-04-20T07:24:34.255Z,52.31
2023-04-20T07:25:34.488Z,52.07
2023-04-20T07:26:34.404Z,52.01
2023-04-20T07:27:34.285Z,52.16
2023-04-20T07:28:34.289Z,52.28
2023-04-20T07:29:34.516Z,52.11
2023-04-20T07:30:34.331Z,51.75
2023-04-20T07:31:35.403Z,51.53
2023-04-20T07:32:34.401Z,51.59
2023-04-20T07:33:34.436Z,51.68
2023-04-20T07:34:34.930Z,51.37
2023-04-20T07:35:34.569Z,51.15
2023-04-20T07:36:34.506Z,51.20
2023-04-20T07:37:34.514Z,50.65
2023-04-20T07:38:34.532Z,50.82
2023-04-20T07:39:34.617Z,50.87
2023-04-20T07:40:34.681Z,50.60
2023-04-20T07:41:34.652Z,50.72
2023-04-20T07:42:34.652Z,51.15
2023-04-20T07:43:35.445Z,51.04
2023-04-20T07:44:34.741Z,51.42
2023-04-20T07:45:34.866Z,50.81
2023-04-20T07:46:34.794Z,51.02
2023-04-20T07:47:34.936Z,50.81
2023-04-20T07:48:34.873Z,50.44
2023-04-20T07:49:34.944Z,49.75
2023-04-20T07:50:35.131Z,49.50
2023-04-20T07:51:34.977Z,50.06
2023-04-20T07:52:34.989Z,49.81
2023-04-20T07:53:35.023Z,49.62
2023-04-20T07:54:35.440Z,48.89
2023-04-20T07:55:35.058Z,48.84
2023-04-20T07:56:35.081Z,48.55
2023-04-20T07:57:35.144Z,48.73
2023-04-20T07:58:35.159Z,48.32
2023-04-20T07:59:35.175Z,47.89
2023-04-20T08:00:36.232Z,48.13
2023-04-20T08:01:35.276Z,48.29
2023-04-20T08:02:35.404Z,47.98
2023-04-20T08:03:35.688Z,47.93
2023-04-20T08:04:35.893Z,48.02
2023-04-20T08:05:35.404Z,47.83
2023-04-20T08:06:35.369Z,47.64
2023-04-20T08:07:35.440Z,47.58
2023-04-20T08:08:41.944Z,47.58
2023-04-20T08:09:35.771Z,47.90
2023-04-20T08:10:35.442Z,48.54
2023-04-20T08:11:35.401Z,48.64
2023-04-20T08:12:35.464Z,48.18
2023-04-20T08:13:35.395Z,48.14
2023-04-20T08:14:35.471Z,47.97
2023-04-20T08:15:35.401Z,48.52
2023-04-20T08:16:35.491Z,47.98
2023-04-20T08:17:35.413Z,47.73
2023-04-20T08:18:35.395Z,46.78
2023-04-20T08:19:35.353Z,46.10
2023-04-20T08:20:35.998Z,45.68
2023-04-20T08:21:35.339Z,45.82
2023-04-20T08:22:35.548Z,45.81
2023-04-20T08:23:35.354Z,45.02
2023-04-20T08:24:35.352Z,44.99
2023-04-20T08:25:35.405Z,45.30
2023-04-20T08:26:35.476Z,45.24
2023-04-20T08:27:35.292Z,44.89
2023-04-20T08:28:35.926Z,45.65
2023-04-20T08:29:35.960Z,45.87
2023-04-20T08:30:35.356Z,46.57
2023-04-20T08:31:35.490Z,46.22
2023-04-20T08:32:35.259Z,46.23
2023-04-20T08:33:35.309Z,46.24
2023-04-20T08:34:35.785Z,46.23
2023-04-20T08:35:35.540Z,45.06
2023-04-20T08:36:35.195Z,44.71
2023-04-20T08:37:35.225Z,44.52
2023-04-20T08:38:35.192Z,45.00
2023-04-20T08:39:35.201Z,45.38
2023-04-20T08:40:36.165Z,44.50
2023-04-20T08:41:35.190Z,43.86
2023-04-20T08:42:35.165Z,44.47
2023-04-20T08:43:35.170Z,45.20
2023-04-20T08:44:35.622Z,45.81
2023-04-20T08:45:35.173Z,45.82
2023-04-20T08:46:35.395Z,45.40
2023-04-20T08:47:35.179Z,45.47
2023-04-20T08:48:35.187Z,45.82
2023-04-20T08:49:35.449Z,45.38
2023-04-20T08:50:35.126Z,46.04
2023-04-20T08:51:35.122Z,44.71
2023-04-20T08:52:35.099Z,44.55
2023-04-20T08:53:35.115Z,44.72
2023-04-20T08:54:37.268Z,43.74
2023-04-20T08:55:35.096Z,43.39
2023-04-20T08:56:35.180Z,44.14
2023-04-20T08:57:35.078Z,44.18
2023-04-20T08:58:35.050Z,43.88
2023-04-20T08:59:35.067Z,44.07
2023-04-20T09:00:35.032Z,43.54
2023-04-20T09:01:35.963Z,43.44
2023-04-20T09:02:35.229Z,43.08
2023-04-20T09:03:35.331Z,43.02
2023-04-20T09:04:37.098Z,43.28
2023-04-20T09:05:35.025Z,43.16
2023-04-20T09:06:35.032Z,41.71
2023-04-20T09:07:35.006Z,41.85
2023-04-20T09:08:34.974Z,42.03
2023-04-20T09:09:35.007Z,42.30
2023-04-20T09:10:34.981Z,43.10
2023-04-20T09:11:34.982Z,43.76
2023-04-20T09:12:36.028Z,43.84
2023-04-20T09:13:34.984Z,42.85
2023-04-20T09:14:35.467Z,41.93
2023-04-20T09:15:34.973Z,42.81
2023-04-20T09:16:35.143Z,43.30
2023-04-20T09:17:35.041Z,43.54
2023-04-20T09:18:35.029Z,44.02
2023-04-20T09:19:34.984Z,44.35
2023-04-20T09:20:35.015Z,44.06
2023-04-20T09:21:35.018Z,43.88
2023-04-20T09:22:35.127Z,43.17
2023-04-20T09:23:35.101Z,43.77
2023-04-20T09:24:35.192Z,43.91
2023-04-20T09:25:35.138Z,42.83
2023-04-20T09:26:35.281Z,42.22
2023-04-20T09:27:35.233Z,41.52
2023-04-20T09:28:36.054Z,41.54
2023-04-20T09:29:35.518Z,41.96
2023-04-20T09:30:35.290Z,42.41
2023-04-20T09:31:35.364Z,43.04
2023-04-20T09:32:35.385Z,42.50
2023-04-20T09:33:39.028Z,42.30
2023-04-20T09:34:35.463Z,41.79
2023-04-20T09:35:35.389Z,41.82
2023-04-20T09:36:35.646Z,41.62
2023-04-20T09:37:35.390Z,42.36
2023-04-20T09:38:36.046Z,43.89
2023-04-20T09:39:35.476Z,43.68
2023-04-20T09:40:35.434Z,43.78
2023-04-20T09:41:36.970Z,43.26
2023-04-20T09:42:35.388Z,42.51
2023-04-20T09:43:35.375Z,43.13
2023-04-20T09:44:35.506Z,43.04
2023-04-20T09:45:35.446Z,43.05
2023-04-20T09:46:35.466Z,42.33
2023-04-20T09:47:35.353Z,42.55
2023-04-20T09:48:35.311Z,42.52
2023-04-20T09:49:35.278Z,42.17
2023-04-20T09:50:48.128Z,42.42
2023-04-20T09:51:36.405Z,41.96
2023-04-20T09:52:35.393Z,41.22
2023-04-20T09:53:35.257Z,41.30
2023-04-20T09:54:35.493Z,41.15
2023-04-20T09:55:35.261Z,41.35
2023-04-20T09:56:35.394Z,41.69
2023-04-20T09:57:35.286Z,41.50
2023-04-20T09:58:35.254Z,41.19
2023-04-20T09:59:35.236Z,41.12
2023-04-20T10:00:35.234Z,41.33
2023-04-20T10:01:35.328Z,41.70
2023-04-20T10:02:35.469Z,42.10
2023-04-20T10:03:35.394Z,41.93
2023-04-20T10:04:35.407Z,41.88
2023-04-20T10:05:35.380Z,41.54
2023-04-20T10:06:35.402Z,41.50
2023-04-20T10:07:35.473Z,41.97
2023-04-20T10:08:35.464Z,42.78
2023-04-20T10:09:35.512Z,42.80
2023-04-20T10:10:35.475Z,42.87
2023-04-20T10:11:45.133Z,43.16
2023-04-20T10:12:36.480Z,42.16
2023-04-20T10:13:35.494Z,41.25
2023-04-20T10:14:35.518Z,41.03
2023-04-20T10:15:35.474Z,40.12
2023-04-20T10:16:35.572Z,39.63
2023-04-20T10:17:35.511Z,40.23
2023-04-20T10:18:35.577Z,41.07
2023-04-20T10:19:35.462Z,41.69
2023-04-20T10:20:35.458Z,41.89
2023-04-20T10:21:35.530Z,40.28
2023-04-20T10:22:35.433Z,40.07
2023-04-20T10:23:35.503Z,39.58
2023-04-20T10:24:35.434Z,39.70
2023-04-20T10:25:35.457Z,40.77
2023-04-20T10:26:35.413Z,40.21
2023-04-20T10:27:35.437Z,43.42
2023-04-20T10:28:35.961Z,41.01
2023-04-20T10:29:36.540Z,42.11
2023-04-20T10:30:35.397Z,44.10
2023-04-20T10:31:36.107Z,43.32
2023-04-20T10:32:35.447Z,43.62
2023-04-20T10:33:35.444Z,42.59
2023-04-20T10:34:36.030Z,44.49
2023-04-20T10:35:35.546Z,44.47
2023-04-20T10:36:38.518Z,44.50
2023-04-20T10:37:35.525Z,42.35
2023-04-20T10:38:35.538Z,42.79
2023-04-20T10:39:36.015Z,42.87
2023-04-20T10:40:35.518Z,42.31
2023-04-20T10:41:35.518Z,43.10
2023-04-20T10:42:35.566Z,43.82
2023-04-20T10:43:35.503Z,45.96
2023-04-20T10:44:36.991Z,44.18
2023-04-20T10:45:35.456Z,42.83
2023-04-20T10:46:37.015Z,41.83
2023-04-20T10:47:35.548Z,41.13
2023-04-20T10:48:35.492Z,41.28
2023-04-20T10:49:35.442Z,41.52
2023-04-20T10:50:35.432Z,40.92
2023-04-20T10:51:35.415Z,40.17
2023-04-20T10:52:35.388Z,40.08
2023-04-20T10:53:35.538Z,40.11
2023-04-20T10:54:35.398Z,40.24
2023-04-20T10:55:35.403Z,39.84
2023-04-20T10:56:35.443Z,39.95
2023-04-20T10:57:35.389Z,39.75
2023-04-20T10:58:36.011Z,39.92
2023-04-20T10:59:35.366Z,39.86
2023-04-20T11:00:35.421Z,40.56
2023-04-20T11:01:35.415Z,40.81
2023-04-20T11:02:35.530Z,40.69
2023-04-20T11:03:35.462Z,41.01
2023-04-20T11:04:35.353Z,41.02
2023-04-20T11:05:35.337Z,41.51
2023-04-20T11:06:36.111Z,41.59
2023-04-20T11:07:35.320Z,43.00
2023-04-20T11:08:35.456Z,43.97
2023-04-20T11:09:35.327Z,44.18
2023-04-20T11:10:35.328Z,43.86
2023-04-20T11:11:35.374Z,45.02
2023-04-20T11:12:35.430Z,43.99
2023-04-20T11:13:35.548Z,44.15
2023-04-20T11:14:35.441Z,44.20
2023-04-20T11:15:35.512Z,44.06
2023-04-20T11:16:47.862Z,44.70
2023-04-20T11:17:36.662Z,44.10
2023-04-20T11:18:36.484Z,44.82
2023-04-20T11:19:35.639Z,46.03
2023-04-20T11:20:36.236Z,44.81
2023-04-20T11:21:35.691Z,45.76
2023-04-20T11:22:35.565Z,45.01
2023-04-20T11:23:35.493Z,44.99
2023-04-20T11:24:35.497Z,44.98
2023-04-20T11:25:35.481Z,44.89
2023-04-20T11:26:35.507Z,45.06
2023-04-20T11:27:35.459Z,45.64
2023-04-20T11:28:35.469Z,46.11
2023-04-20T11:29:35.493Z,45.20
2023-04-20T11:30:35.453Z,45.76
2023-04-20T11:31:35.673Z,48.46
2023-04-20T11:32:35.752Z,47.98
2023-04-20T11:33:35.643Z,50.20
2023-04-20T11:34:35.727Z,49.58
2023-04-20T11:35:35.670Z,49.56
2023-04-20T11:36:35.719Z,47.57
2023-04-20T11:37:35.735Z,47.26
2023-04-20T11:38:35.773Z,47.73
2023-04-20T11:39:36.081Z,47.33
2023-04-20T11:40:35.898Z,47.93
2023-04-20T11:41:35.862Z,47.26
2023-04-20T11:42:35.881Z,46.97
2023-04-20T11:43:36.529Z,46.54
2023-04-20T11:44:36.015Z,48.01
2023-04-20T11:45:36.779Z,48.22
2023-04-20T11:46:36.080Z,46.47
2023-04-20T11:47:37.023Z,46.31
2023-04-20T11:48:36.201Z,47.85
2023-04-20T11:49:36.589Z,48.05
2023-04-20T11:50:36.310Z,47.49
2023-04-20T11:51:36.307Z,47.66
2023-04-20T11:52:36.339Z,49.00
2023-04-20T11:53:36.340Z,50.30
2023-04-20T11:54:38.010Z,49.86
2023-04-20T11:55:36.383Z,49.91
2023-04-20T11:56:37.046Z,48.52
2023-04-20T11:57:36.400Z,49.66
2023-04-20T11:58:36.458Z,49.04
2023-04-20T11:59:36.503Z,48.49
2023-04-20T12:00:36.407Z,48.20
2023-04-20T12:01:36.452Z,47.87
2023-04-20T12:02:36.527Z,47.14
2023-04-20T12:03:36.637Z,48.22
2023-04-20T12:04:37.366Z,48.61
2023-04-20T12:05:36.659Z,48.31
2023-04-20T12:06:36.543Z,48.53
2023-04-20T12:07:36.589Z,48.35
2023-04-20T12:08:36.620Z,47.67
2023-04-20T12:09:36.694Z,47.70
2023-04-20T12:10:36.695Z,48.48
2023-04-20T12:11:36.740Z,48.74
2023-04-20T12:12:36.765Z,49.10
2023-04-20T12:13:36.762Z,47.13
2023-04-20T12:14:36.995Z,47.04
2023-04-20T12:15:36.860Z,47.02
2023-04-20T12:16:36.898Z,46.49
2023-04-20T12:17:37.069Z,47.43
2023-04-20T12:18:37.047Z,46.13
2023-04-20T12:19:37.553Z,46.52
2023-04-20T12:20:36.917Z,46.11
2023-04-20T12:21:37.033Z,46.26
2023-04-20T12:22:37.090Z,45.81
2023-04-20T12:23:37.018Z,46.34
2023-04-20T12:24:37.093Z,45.76
2023-04-20T12:25:37.097Z,46.37
2023-04-20T12:26:38.617Z,45.64
2023-04-20T12:27:37.129Z,46.03
2023-04-20T12:28:37.176Z,46.15
2023-04-20T12:29:37.622Z,47.27
2023-04-20T12:30:37.234Z,45.66
2023-04-20T12:31:37.420Z,45.03
2023-04-20T12:32:37.366Z,44.91
2023-04-20T12:33:37.371Z,44.92
2023-04-20T12:34:37.435Z,44.85
2023-04-20T12:35:37.420Z,44.78
2023-04-20T12:36:37.422Z,43.69
2023-04-20T12:37:37.478Z,43.93
2023-04-20T12:38:37.446Z,43.61
2023-04-20T12:39:37.522Z,43.74
2023-04-20T12:40:37.491Z,43.76
2023-04-20T12:41:37.526Z,43.86
2023-04-20T12:42:37.558Z,43.67
2023-04-20T12:43:37.587Z,43.81
2023-04-20T12:44:37.677Z,43.21
2023-04-20T12:45:37.592Z,43.82
2023-04-20T12:46:37.692Z,44.49
2023-04-20T12:47:37.676Z,44.61
2023-04-20T12:48:37.724Z,44.13
2023-04-20T12:49:37.771Z,42.02
2023-04-20T12:50:37.794Z,41.51
2023-04-20T12:51:37.849Z,41.23
2023-04-20T12:52:37.960Z,42.52